Weather reports worldwide

Advertisment
Chatillon/Seine, France (7276): temperature & dewpoint: 08.11.2018 13:00:00 - 14.11.2018 13:00:00 (CET)Chatillon/Seine, France (7276): wind speed & gusts: 08.11.2018 13:00:00 - 14.11.2018 13:00:00 (CET)Chatillon/Seine, France (7276): wind direction: 08.11.2018 13:00:00 - 14.11.2018 13:00:00 (CET)Chatillon/Seine, France (7276): sunshine duration: 08.11.2018 13:00:00 - 14.11.2018 13:00:00 (CET)Chatillon/Seine, France (7276): precipitation: 08.11.2018 13:00:00 - 14.11.2018 13:00:00 (CET)
Date & Time tt [°C] td [°C] ff [km/h] ff [kn] fx [km/h] fx [kn] dd sd [min] rr [mm]
14.11.2018 13:00:00 - - - - - - - - -
14.11.2018 12:00:00 13,0 13,0 8 4 13 7 SE 60 0,0
14.11.2018 11:00:00 7,5 7,5 4 2 5 3 NW 36 0,0
14.11.2018 10:00:00 5,1 5,1 4 2 5 3 N 48 0,0
14.11.2018 09:00:00 3,2 3,2 2 1 9 5 NE 12 0,0
14.11.2018 08:00:00 2,8 2,8 4 2 5 3 NE 0 0,0
14.11.2018 07:00:00 3,4 3,4 5 3 9 5 E 0 -
14.11.2018 06:00:00 3,8 3,8 4 2 9 5 NE 0 0,0
14.11.2018 05:00:00 4,4 4,4 2 1 9 5 ENE 0 0,0
14.11.2018 04:00:00 4,0 4,0 4 2 8 4 N 0 0,0
14.11.2018 03:00:00 2,8 2,8 0 0 5 3 N 0 0,0
14.11.2018 02:00:00 0,4 0,4 5 3 8 4 S 0 0,0
14.11.2018 01:00:00 1,4 1,4 0 0 5 3 N 0 -
14.11.2018 00:00:00 1,6 1,6 0 0 8 4 N 0 0,0
13.11.2018 23:00:00 3,0 3,0 2 1 8 4 S 0 0,0
13.11.2018 22:00:00 3,5 3,5 2 1 4 2 N 0 0,0
13.11.2018 21:00:00 3,7 3,7 2 1 9 5 SSE 0 0,0
13.11.2018 20:00:00 4,8 4,8 5 3 9 5 S 0 0,0
13.11.2018 19:00:00 5,7 5,4 5 3 9 5 SE 0 -
13.11.2018 18:00:00 7,3 5,9 8 4 9 5 SSE 0 0,0
13.11.2018 17:00:00 10,9 6,2 4 2 11 6 S 36 0,0
13.11.2018 16:00:00 12,7 7,2 9 5 16 9 SSW 60 0,0
13.11.2018 15:00:00 13,2 8,1 8 4 22 12 WSW 60 0,0
13.11.2018 14:00:00 13,5 9,9 9 5 18 10 W 24 0,0
13.11.2018 13:00:00 11,0 9,7 11 6 21 11 SW 0 -
13.11.2018 12:00:00 11,1 10,2 9 5 18 10 WSW 0 0,0
13.11.2018 11:00:00 10,6 10,4 11 6 22 12 WSW 0 0,0
13.11.2018 10:00:00 10,1 10,1 8 4 13 7 SSW 0 0,0
13.11.2018 09:00:00 9,2 9,2 8 4 13 7 SSW 0 0,0
13.11.2018 08:00:00 9,7 9,7 8 4 21 11 SSW 0 0,0
13.11.2018 07:00:00 10,2 10,2 11 6 18 10 WSW 0 -
13.11.2018 06:00:00 10,1 10,1 13 7 18 10 S 0 0,0
13.11.2018 05:00:00 10,2 10,2 8 4 22 12 S 0 0,4
13.11.2018 04:00:00 10,5 10,5 16 9 22 12 SSE 0 2,0
13.11.2018 03:00:00 10,9 10,9 13 7 18 10 S 0 2,0
13.11.2018 02:00:00 11,0 11,0 9 5 11 6 SSW 0 2,0
13.11.2018 01:00:00 11,1 11,1 4 2 11 6 WSW 0 -
13.11.2018 00:00:00 11,4 11,4 4 2 9 5 WSW 0 0,8
12.11.2018 23:00:00 11,7 11,7 0 0 5 3 N 0 2,0
12.11.2018 22:00:00 11,7 11,7 0 0 5 3 N 0 2,0
12.11.2018 21:00:00 12,2 12,2 0 0 9 5 N 0 4,0
12.11.2018 20:00:00 12,1 11,9 5 3 11 6 S 0 5,0
12.11.2018 19:00:00 12,3 11,4 9 5 13 7 SSW 0 -
12.11.2018 18:00:00 12,6 11,0 8 4 13 7 SSW 0 2,0
12.11.2018 17:00:00 13,4 10,7 8 4 24 13 WSW 0 0,0
12.11.2018 16:00:00 15,0 11,6 4 2 13 7 W 0 0,0
12.11.2018 15:00:00 15,6 11,8 8 4 28 15 W 0 0,0
12.11.2018 14:00:00 16,5 12,3 13 7 37 20 SW 0 0,4
12.11.2018 13:00:00 19,4 11,2 22 12 42 23 SSW 0 -
12.11.2018 12:00:00 18,7 11,0 24 13 44 24 S 6 0,0
12.11.2018 11:00:00 18,3 10,6 29 16 44 24 S 0 0,0
12.11.2018 10:00:00 16,7 10,3 24 13 37 20 S 0 0,0
12.11.2018 09:00:00 16,2 10,1 26 14 42 23 S 48 0,0
12.11.2018 08:00:00 14,0 9,4 22 12 28 15 S 0 0,0
12.11.2018 07:00:00 12,6 9,1 15 8 26 14 S 0 -
12.11.2018 06:00:00 13,0 9,1 18 10 37 20 SSE 0 0,0
12.11.2018 05:00:00 14,8 9,4 24 13 35 19 S 0 0,0
12.11.2018 04:00:00 13,9 9,5 15 8 28 15 S 0 0,0
12.11.2018 03:00:00 14,3 9,5 22 12 35 19 SSE 0 0,0
12.11.2018 02:00:00 14,7 9,5 21 11 29 16 SSE 0 0,0
12.11.2018 01:00:00 13,1 9,5 11 6 18 10 SSE 0 -
12.11.2018 00:00:00 12,5 9,1 8 4 16 9 SE 0 0,0
11.11.2018 23:00:00 14,9 9,5 13 7 34 18 SSE 0 0,0
11.11.2018 22:00:00 15,6 9,9 22 12 29 16 S 0 0,0
11.11.2018 21:00:00 15,5 9,8 18 10 37 20 S 0 0,0
11.11.2018 20:00:00 15,3 10,3 24 13 34 18 SSE 0 0,0
11.11.2018 19:00:00 15,2 11,0 18 10 26 14 S 0 -
11.11.2018 18:00:00 14,9 10,7 15 8 21 11 S 0 0,0
11.11.2018 17:00:00 15,2 9,5 16 9 34 18 S 0 0,0
11.11.2018 16:00:00 16,3 8,5 21 11 35 19 S 36 0,0
11.11.2018 15:00:00 16,8 8,2 24 13 44 24 S 36 0,0
11.11.2018 14:00:00 18,0 8,0 24 13 48 26 S 60 0,0
11.11.2018 13:00:00 17,4 7,7 34 18 50 27 S 60 -
11.11.2018 12:00:00 16,3 8,8 28 15 48 26 SSE 48 0,0
11.11.2018 11:00:00 15,1 8,3 28 15 39 21 S 60 0,0
11.11.2018 10:00:00 13,0 8,9 26 14 39 21 SSE 54 0,0
11.11.2018 09:00:00 10,0 7,8 26 14 35 19 SSE 18 0,0
11.11.2018 08:00:00 9,3 7,4 22 12 34 18 SSE 0 0,0
11.11.2018 07:00:00 9,3 7,2 22 12 37 20 S 0 -
11.11.2018 06:00:00 9,3 7,6 22 12 34 18 S 0 0,0
11.11.2018 05:00:00 9,0 7,6 22 12 31 17 S 0 0,0
11.11.2018 04:00:00 9,6 8,2 24 13 37 20 SSE 0 0,2
11.11.2018 03:00:00 9,8 8,7 21 11 34 18 S 0 0,6
11.11.2018 02:00:00 9,8 8,6 18 10 29 16 S 0 1,0
11.11.2018 01:00:00 10,3 8,6 21 11 29 16 S 0 -
11.11.2018 00:00:00 10,4 8,3 16 9 28 15 SSW 0 0,0
10.11.2018 23:00:00 10,2 8,6 15 8 31 17 S 0 0,0
10.11.2018 22:00:00 10,2 8,5 16 9 29 16 SSW 0 0,0
10.11.2018 21:00:00 9,9 8,5 15 8 34 18 SSW 0 0,0
10.11.2018 20:00:00 10,5 8,9 26 14 37 20 S 0 0,2
10.11.2018 19:00:00 10,8 9,2 26 14 37 20 S 0 -
10.11.2018 18:00:00 11,7 10,8 16 9 31 17 SSW 0 0,0
10.11.2018 17:00:00 12,1 11,6 11 6 34 18 S 0 0,4
10.11.2018 16:00:00 12,5 12,3 16 9 34 18 S 0 1,0
10.11.2018 15:00:00 13,3 11,7 22 12 41 22 S 0 0,0
10.11.2018 14:00:00 13,3 12,0 26 14 39 21 SSE 0 0,0
10.11.2018 13:00:00 12,5 12,3 24 13 39 21 SSE 0 -
10.11.2018 12:00:00 12,4 11,9 21 11 41 22 S 0 1,0
10.11.2018 11:00:00 12,1 11,6 22 12 34 18 S 0 2,0
10.11.2018 10:00:00 11,9 11,3 16 9 28 15 S 0 2,0
10.11.2018 09:00:00 11,9 11,0 18 10 28 15 S 0 2,0
10.11.2018 08:00:00 11,8 10,4 11 6 22 12 S 0 0,4
10.11.2018 07:00:00 12,5 10,0 13 7 37 20 S 0 -
10.11.2018 06:00:00 13,1 9,5 22 12 41 22 S 0 0,2
10.11.2018 05:00:00 13,9 8,9 24 13 48 26 S 0 0,0
10.11.2018 04:00:00 13,7 8,5 26 14 41 22 S 0 0,0
10.11.2018 03:00:00 13,8 8,2 24 13 39 21 S 0 0,0
10.11.2018 02:00:00 13,4 8,7 24 13 34 18 S 0 0,0
10.11.2018 01:00:00 12,2 8,8 18 10 34 18 S 0 -
10.11.2018 00:00:00 11,8 9,4 22 12 39 21 SSE 0 0,0
09.11.2018 23:00:00 12,5 9,5 28 15 41 22 SSE 0 0,0
09.11.2018 22:00:00 12,4 9,9 18 10 28 15 SSE 0 0,0
09.11.2018 21:00:00 11,5 9,4 15 8 26 14 SSE 0 0,0
09.11.2018 20:00:00 11,0 8,9 15 8 22 12 SSE 0 0,0
09.11.2018 19:00:00 11,8 9,2 18 10 26 14 SSE 0 -
09.11.2018 18:00:00 12,5 9,9 16 9 24 13 SSE 0 0,0
09.11.2018 17:00:00 13,4 9,8 15 8 28 15 SSE 6 0,0
09.11.2018 16:00:00 14,8 9,8 18 10 28 15 S 48 0,0
09.11.2018 15:00:00 14,6 9,6 18 10 29 16 SSW 12 0,0
09.11.2018 14:00:00 14,9 9,9 18 10 28 15 S 6 0,0
09.11.2018 13:00:00 15,7 10,0 13 7 24 13 S 24 -
09.11.2018 12:00:00 13,8 10,2 18 10 35 19 S 0 0,0
09.11.2018 11:00:00 12,6 11,3 15 8 24 13 S 0 0,0
09.11.2018 10:00:00 9,8 9,8 5 3 18 10 SSE 0 0,0
09.11.2018 09:00:00 7,1 7,1 4 2 11 6 SE 12 0,0
09.11.2018 08:00:00 5,1 5,1 4 2 5 3 ENE 0 0,0
09.11.2018 07:00:00 5,5 5,5 0 0 4 2 N 0 -
09.11.2018 06:00:00 6,0 6,0 0 0 9 5 N 0 0,0
09.11.2018 05:00:00 6,3 6,3 0 0 9 5 N 0 0,0
09.11.2018 04:00:00 6,9 6,8 4 2 8 4 SSW 0 0,0
09.11.2018 03:00:00 7,1 6,0 5 3 21 11 SE 0 0,0
09.11.2018 02:00:00 7,6 6,5 15 8 21 11 SSE 0 0,0
09.11.2018 01:00:00 8,1 6,7 13 7 18 10 SSE 0 -
09.11.2018 00:00:00 8,7 7,5 13 7 22 12 SSE 0 0,0
08.11.2018 23:00:00 7,9 6,7 8 4 16 9 SE 0 0,0
08.11.2018 22:00:00 8,2 6,5 13 7 21 11 SE 0 0,0
08.11.2018 21:00:00 8,2 7,3 11 6 15 8 ESE 0 0,0
08.11.2018 20:00:00 7,3 5,8 4 2 8 4 SE 0 0,0
08.11.2018 19:00:00 8,3 5,8 4 2 11 6 E 0 -
08.11.2018 18:00:00 9,5 6,2 9 5 16 9 ESE 0 0,0
08.11.2018 17:00:00 10,6 6,2 11 6 15 8 ESE 0 0,0
08.11.2018 16:00:00 11,9 5,7 9 5 16 9 E 12 0,0
08.11.2018 15:00:00 12,8 5,7 8 4 16 9 E 24 0,0
08.11.2018 14:00:00 12,7 5,8 11 6 21 11 E 48 0,0
08.11.2018 13:00:00 12,5 7,0 8 4 15 8 NE 60 -

tt = temperature
td = dewpoint
ff = wind speed
fx = gusts
dd = wind direction
sd = sunshine duration
rr = precipitation

Next stations